sensor_id;sensor_type;location;lat;lon;timestamp;P1;durP1;ratioP1;P2;durP2;ratioP2
75548;SDS011;64133;56.002;37.208;2023-08-08T00:04:35;4.03;;;1.98;;
75548;SDS011;64133;56.002;37.208;2023-08-08T00:09:40;2.80;;;1.92;;
75548;SDS011;64133;56.002;37.208;2023-08-08T00:14:44;3.87;;;2.20;;
75548;SDS011;64133;56.002;37.208;2023-08-08T00:19:49;3.70;;;2.60;;
75548;SDS011;64133;56.002;37.208;2023-08-08T00:24:54;2.50;;;2.00;;
75548;SDS011;64133;56.002;37.208;2023-08-08T00:29:58;3.77;;;2.40;;
75548;SDS011;64133;56.002;37.208;2023-08-08T00:35:03;3.60;;;2.52;;
75548;SDS011;64133;56.002;37.208;2023-08-08T00:40:09;6.28;;;2.90;;
75548;SDS011;64133;56.002;37.208;2023-08-08T00:45:14;4.75;;;2.42;;
75548;SDS011;64133;56.002;37.208;2023-08-08T00:50:18;3.77;;;2.30;;
75548;SDS011;64133;56.002;37.208;2023-08-08T00:55:23;3.05;;;2.58;;
75548;SDS011;64133;56.002;37.208;2023-08-08T01:00:28;5.50;;;2.33;;
75548;SDS011;64133;56.002;37.208;2023-08-08T01:05:32;2.80;;;2.08;;
75548;SDS011;64133;56.002;37.208;2023-08-08T01:10:36;5.15;;;2.33;;
75548;SDS011;64133;56.002;37.208;2023-08-08T01:15:41;4.05;;;2.50;;
75548;SDS011;64133;56.002;37.208;2023-08-08T01:20:45;3.17;;;2.02;;
75548;SDS011;64133;56.002;37.208;2023-08-08T01:25:51;5.08;;;2.45;;
75548;SDS011;64133;56.002;37.208;2023-08-08T01:30:55;2.90;;;2.10;;
75548;SDS011;64133;56.002;37.208;2023-08-08T01:36:02;3.35;;;2.27;;
75548;SDS011;64133;56.002;37.208;2023-08-08T01:41:05;2.98;;;2.42;;
75548;SDS011;64133;56.002;37.208;2023-08-08T01:46:10;3.02;;;2.33;;
75548;SDS011;64133;56.002;37.208;2023-08-08T01:51:14;4.85;;;2.55;;
75548;SDS011;64133;56.002;37.208;2023-08-08T01:56:19;2.65;;;2.20;;
75548;SDS011;64133;56.002;37.208;2023-08-08T02:01:24;4.70;;;2.27;;
75548;SDS011;64133;56.002;37.208;2023-08-08T02:06:28;3.47;;;2.15;;
75548;SDS011;64133;56.002;37.208;2023-08-08T02:11:33;2.80;;;2.20;;
75548;SDS011;64133;56.002;37.208;2023-08-08T02:16:38;2.80;;;2.12;;
75548;SDS011;64133;56.002;37.208;2023-08-08T02:21:42;4.53;;;2.00;;
75548;SDS011;64133;56.002;37.208;2023-08-08T02:26:47;3.60;;;1.98;;
75548;SDS011;64133;56.002;37.208;2023-08-08T02:31:52;2.62;;;2.10;;
75548;SDS011;64133;56.002;37.208;2023-08-08T02:36:56;5.30;;;2.58;;
75548;SDS011;64133;56.002;37.208;2023-08-08T02:42:01;4.10;;;2.30;;
75548;SDS011;64133;56.002;37.208;2023-08-08T02:47:06;4.15;;;2.40;;
75548;SDS011;64133;56.002;37.208;2023-08-08T02:52:11;4.15;;;2.77;;
75548;SDS011;64133;56.002;37.208;2023-08-08T02:57:15;5.22;;;2.40;;
75548;SDS011;64133;56.002;37.208;2023-08-08T03:02:20;4.30;;;2.70;;
75548;SDS011;64133;56.002;37.208;2023-08-08T03:07:25;3.33;;;2.55;;
75548;SDS011;64133;56.002;37.208;2023-08-08T03:12:29;5.72;;;2.95;;
75548;SDS011;64133;56.002;37.208;2023-08-08T03:17:34;6.78;;;2.33;;
75548;SDS011;64133;56.002;37.208;2023-08-08T03:22:39;5.55;;;2.75;;
75548;SDS011;64133;56.002;37.208;2023-08-08T03:27:43;7.25;;;2.70;;
75548;SDS011;64133;56.002;37.208;2023-08-08T03:32:48;3.25;;;2.50;;
75548;SDS011;64133;56.002;37.208;2023-08-08T03:37:55;3.72;;;2.80;;
75548;SDS011;64133;56.002;37.208;2023-08-08T03:43:00;6.40;;;2.92;;
75548;SDS011;64133;56.002;37.208;2023-08-08T03:48:05;5.45;;;3.20;;
75548;SDS011;64133;56.002;37.208;2023-08-08T03:53:10;3.95;;;2.67;;
75548;SDS011;64133;56.002;37.208;2023-08-08T03:58:14;6.40;;;2.75;;
75548;SDS011;64133;56.002;37.208;2023-08-08T04:03:19;5.75;;;2.77;;
75548;SDS011;64133;56.002;37.208;2023-08-08T04:08:24;3.98;;;2.75;;
75548;SDS011;64133;56.002;37.208;2023-08-08T04:13:29;10.15;;;3.33;;
75548;SDS011;64133;56.002;37.208;2023-08-08T04:18:33;3.72;;;2.40;;
75548;SDS011;64133;56.002;37.208;2023-08-08T04:23:38;5.00;;;2.65;;
75548;SDS011;64133;56.002;37.208;2023-08-08T04:28:43;7.37;;;2.50;;
75548;SDS011;64133;56.002;37.208;2023-08-08T04:33:47;4.65;;;3.08;;
75548;SDS011;64133;56.002;37.208;2023-08-08T04:38:52;4.35;;;2.45;;
75548;SDS011;64133;56.002;37.208;2023-08-08T04:43:57;4.87;;;2.62;;
75548;SDS011;64133;56.002;37.208;2023-08-08T04:49:01;3.30;;;2.65;;
75548;SDS011;64133;56.002;37.208;2023-08-08T04:54:06;7.15;;;2.77;;
75548;SDS011;64133;56.002;37.208;2023-08-08T04:59:11;3.60;;;2.80;;
75548;SDS011;64133;56.002;37.208;2023-08-08T05:04:16;4.28;;;2.83;;
75548;SDS011;64133;56.002;37.208;2023-08-08T05:09:20;4.30;;;2.80;;
75548;SDS011;64133;56.002;37.208;2023-08-08T05:14:25;6.17;;;2.80;;
75548;SDS011;64133;56.002;37.208;2023-08-08T05:19:30;5.60;;;2.67;;
75548;SDS011;64133;56.002;37.208;2023-08-08T05:24:34;8.45;;;2.77;;
75548;SDS011;64133;56.002;37.208;2023-08-08T05:29:39;3.80;;;2.70;;
75548;SDS011;64133;56.002;37.208;2023-08-08T05:34:44;6.95;;;3.15;;
75548;SDS011;64133;56.002;37.208;2023-08-08T05:39:48;4.60;;;3.33;;
75548;SDS011;64133;56.002;37.208;2023-08-08T05:44:53;6.42;;;2.92;;
75548;SDS011;64133;56.002;37.208;2023-08-08T05:49:58;3.50;;;2.72;;
75548;SDS011;64133;56.002;37.208;2023-08-08T05:55:03;4.60;;;3.05;;
75548;SDS011;64133;56.002;37.208;2023-08-08T06:00:09;6.83;;;3.20;;
75548;SDS011;64133;56.002;37.208;2023-08-08T06:05:16;4.55;;;3.12;;
75548;SDS011;64133;56.002;37.208;2023-08-08T06:10:20;10.78;;;3.37;;
75548;SDS011;64133;56.002;37.208;2023-08-08T06:15:25;4.90;;;3.10;;
75548;SDS011;64133;56.002;37.208;2023-08-08T06:20:29;3.95;;;2.70;;
75548;SDS011;64133;56.002;37.208;2023-08-08T06:25:34;8.28;;;3.20;;
75548;SDS011;64133;56.002;37.208;2023-08-08T06:30:39;5.50;;;2.72;;
75548;SDS011;64133;56.002;37.208;2023-08-08T06:35:44;8.73;;;3.08;;
75548;SDS011;64133;56.002;37.208;2023-08-08T06:40:48;6.67;;;3.02;;
75548;SDS011;64133;56.002;37.208;2023-08-08T06:45:53;6.45;;;3.02;;
75548;SDS011;64133;56.002;37.208;2023-08-08T06:50:58;5.50;;;2.87;;
75548;SDS011;64133;56.002;37.208;2023-08-08T06:56:03;3.98;;;3.15;;
75548;SDS011;64133;56.002;37.208;2023-08-08T07:01:08;7.97;;;3.58;;
75548;SDS011;64133;56.002;37.208;2023-08-08T07:06:12;8.00;;;3.62;;
75548;SDS011;64133;56.002;37.208;2023-08-08T07:11:17;7.47;;;3.98;;
75548;SDS011;64133;56.002;37.208;2023-08-08T07:16:22;8.80;;;3.47;;
75548;SDS011;64133;56.002;37.208;2023-08-08T07:21:27;5.12;;;3.17;;
75548;SDS011;64133;56.002;37.208;2023-08-08T07:26:32;8.00;;;3.77;;
75548;SDS011;64133;56.002;37.208;2023-08-08T07:31:37;6.33;;;3.40;;
75548;SDS011;64133;56.002;37.208;2023-08-08T07:36:41;5.10;;;4.33;;
75548;SDS011;64133;56.002;37.208;2023-08-08T07:41:46;4.85;;;3.58;;
75548;SDS011;64133;56.002;37.208;2023-08-08T07:46:51;8.00;;;3.77;;
75548;SDS011;64133;56.002;37.208;2023-08-08T07:51:56;7.03;;;4.80;;
75548;SDS011;64133;56.002;37.208;2023-08-08T07:57:01;5.00;;;3.83;;
75548;SDS011;64133;56.002;37.208;2023-08-08T08:02:06;5.28;;;3.70;;
75548;SDS011;64133;56.002;37.208;2023-08-08T08:07:10;6.17;;;3.75;;
75548;SDS011;64133;56.002;37.208;2023-08-08T08:12:16;12.47;;;4.53;;
75548;SDS011;64133;56.002;37.208;2023-08-08T08:17:20;7.83;;;4.47;;
75548;SDS011;64133;56.002;37.208;2023-08-08T08:22:25;6.53;;;4.45;;
75548;SDS011;64133;56.002;37.208;2023-08-08T08:27:30;6.53;;;3.87;;
75548;SDS011;64133;56.002;37.208;2023-08-08T08:32:36;6.92;;;4.47;;
75548;SDS011;64133;56.002;37.208;2023-08-08T08:37:39;4.62;;;3.87;;
75548;SDS011;64133;56.002;37.208;2023-08-08T08:42:44;10.88;;;4.00;;
75548;SDS011;64133;56.002;37.208;2023-08-08T08:47:49;7.70;;;4.12;;
75548;SDS011;64133;56.002;37.208;2023-08-08T08:52:54;9.38;;;5.33;;
75548;SDS011;64133;56.002;37.208;2023-08-08T08:57:59;8.98;;;4.70;;
75548;SDS011;64133;56.002;37.208;2023-08-08T09:03:04;7.90;;;4.75;;
75548;SDS011;64133;56.002;37.208;2023-08-08T09:08:09;6.33;;;4.12;;
75548;SDS011;64133;56.002;37.208;2023-08-08T09:13:14;6.15;;;4.25;;
75548;SDS011;64133;56.002;37.208;2023-08-08T09:18:19;8.18;;;4.15;;
75548;SDS011;64133;56.002;37.208;2023-08-08T09:23:27;10.63;;;4.47;;
75548;SDS011;64133;56.002;37.208;2023-08-08T09:28:32;7.00;;;4.10;;
75548;SDS011;64133;56.002;37.208;2023-08-08T09:33:39;8.08;;;4.55;;
75548;SDS011;64133;56.002;37.208;2023-08-08T09:38:44;8.13;;;4.55;;
75548;SDS011;64133;56.002;37.208;2023-08-08T09:43:48;8.85;;;4.72;;
75548;SDS011;64133;56.002;37.208;2023-08-08T09:48:53;6.03;;;4.30;;
75548;SDS011;64133;56.002;37.208;2023-08-08T09:53:58;7.35;;;5.03;;
75548;SDS011;64133;56.002;37.208;2023-08-08T09:59:03;9.60;;;4.80;;
75548;SDS011;64133;56.002;37.208;2023-08-08T10:04:08;6.72;;;5.10;;
75548;SDS011;64133;56.002;37.208;2023-08-08T10:09:13;10.15;;;5.33;;
75548;SDS011;64133;56.002;37.208;2023-08-08T10:14:17;9.98;;;5.05;;
75548;SDS011;64133;56.002;37.208;2023-08-08T10:19:23;7.55;;;4.90;;
75548;SDS011;64133;56.002;37.208;2023-08-08T10:24:32;8.50;;;4.85;;
75548;SDS011;64133;56.002;37.208;2023-08-08T10:29:33;11.25;;;5.20;;
75548;SDS011;64133;56.002;37.208;2023-08-08T10:34:39;9.28;;;5.87;;
75548;SDS011;64133;56.002;37.208;2023-08-08T10:39:51;9.68;;;5.72;;
75548;SDS011;64133;56.002;37.208;2023-08-08T10:44:56;7.17;;;5.30;;
75548;SDS011;64133;56.002;37.208;2023-08-08T10:50:02;11.33;;;5.62;;
75548;SDS011;64133;56.002;37.208;2023-08-08T10:55:17;10.70;;;5.47;;
75548;SDS011;64133;56.002;37.208;2023-08-08T11:00:24;9.70;;;5.85;;
75548;SDS011;64133;56.002;37.208;2023-08-08T11:05:30;13.88;;;6.28;;
75548;SDS011;64133;56.002;37.208;2023-08-08T11:10:36;11.18;;;6.40;;
75548;SDS011;64133;56.002;37.208;2023-08-08T11:15:40;9.08;;;5.25;;
75548;SDS011;64133;56.002;37.208;2023-08-08T11:20:45;16.10;;;5.90;;
75548;SDS011;64133;56.002;37.208;2023-08-08T11:25:50;11.93;;;7.05;;
75548;SDS011;64133;56.002;37.208;2023-08-08T11:30:54;8.63;;;5.92;;
75548;SDS011;64133;56.002;37.208;2023-08-08T11:35:59;7.28;;;5.67;;
75548;SDS011;64133;56.002;37.208;2023-08-08T11:41:04;9.13;;;4.97;;
75548;SDS011;64133;56.002;37.208;2023-08-08T11:46:09;10.78;;;6.60;;
75548;SDS011;64133;56.002;37.208;2023-08-08T11:51:15;10.23;;;6.17;;
75548;SDS011;64133;56.002;37.208;2023-08-08T11:56:20;10.05;;;6.00;;
75548;SDS011;64133;56.002;37.208;2023-08-08T12:01:25;15.30;;;6.90;;
75548;SDS011;64133;56.002;37.208;2023-08-08T12:06:29;9.98;;;5.58;;
75548;SDS011;64133;56.002;37.208;2023-08-08T12:11:35;11.90;;;7.03;;
75548;SDS011;64133;56.002;37.208;2023-08-08T12:16:39;10.68;;;5.72;;
75548;SDS011;64133;56.002;37.208;2023-08-08T12:21:44;13.43;;;7.67;;
75548;SDS011;64133;56.002;37.208;2023-08-08T12:26:49;11.48;;;6.80;;
75548;SDS011;64133;56.002;37.208;2023-08-08T12:31:54;9.35;;;5.90;;
75548;SDS011;64133;56.002;37.208;2023-08-08T12:36:58;11.15;;;6.90;;
75548;SDS011;64133;56.002;37.208;2023-08-08T12:42:03;9.85;;;6.28;;
75548;SDS011;64133;56.002;37.208;2023-08-08T12:47:08;11.73;;;6.70;;
75548;SDS011;64133;56.002;37.208;2023-08-08T12:52:13;9.45;;;6.45;;
75548;SDS011;64133;56.002;37.208;2023-08-08T12:57:18;11.65;;;6.00;;
75548;SDS011;64133;56.002;37.208;2023-08-08T13:02:22;9.35;;;6.15;;
75548;SDS011;64133;56.002;37.208;2023-08-08T13:07:27;9.90;;;5.97;;
75548;SDS011;64133;56.002;37.208;2023-08-08T13:12:32;12.80;;;6.65;;
75548;SDS011;64133;56.002;37.208;2023-08-08T13:17:37;9.13;;;6.08;;
75548;SDS011;64133;56.002;37.208;2023-08-08T13:22:41;13.38;;;6.47;;
75548;SDS011;64133;56.002;37.208;2023-08-08T13:27:46;9.98;;;6.37;;
75548;SDS011;64133;56.002;37.208;2023-08-08T13:32:54;11.10;;;6.33;;
75548;SDS011;64133;56.002;37.208;2023-08-08T13:37:59;16.82;;;6.80;;
75548;SDS011;64133;56.002;37.208;2023-08-08T13:43:07;8.60;;;6.35;;
75548;SDS011;64133;56.002;37.208;2023-08-08T13:48:21;10.65;;;6.17;;
75548;SDS011;64133;56.002;37.208;2023-08-08T13:53:26;12.43;;;6.40;;
75548;SDS011;64133;56.002;37.208;2023-08-08T13:58:31;11.80;;;6.25;;
75548;SDS011;64133;56.002;37.208;2023-08-08T14:03:36;8.85;;;4.95;;
75548;SDS011;64133;56.002;37.208;2023-08-08T14:08:40;8.58;;;4.67;;
75548;SDS011;64133;56.002;37.208;2023-08-08T14:13:45;6.83;;;5.15;;
75548;SDS011;64133;56.002;37.208;2023-08-08T14:24:07;8.25;;;5.03;;
75548;SDS011;64133;56.002;37.208;2023-08-08T14:29:12;7.78;;;4.92;;
75548;SDS011;64133;56.002;37.208;2023-08-08T14:34:17;5.58;;;3.80;;
75548;SDS011;64133;56.002;37.208;2023-08-08T14:39:22;8.15;;;3.77;;
75548;SDS011;64133;56.002;37.208;2023-08-08T14:44:27;5.22;;;3.52;;
75548;SDS011;64133;56.002;37.208;2023-08-08T14:49:31;5.92;;;3.40;;
75548;SDS011;64133;56.002;37.208;2023-08-08T14:54:36;7.80;;;3.25;;
75548;SDS011;64133;56.002;37.208;2023-08-08T14:59:41;9.10;;;3.00;;
75548;SDS011;64133;56.002;37.208;2023-08-08T15:04:46;13.68;;;2.75;;
75548;SDS011;64133;56.002;37.208;2023-08-08T15:09:51;5.42;;;2.20;;
75548;SDS011;64133;56.002;37.208;2023-08-08T15:14:55;5.25;;;2.25;;
75548;SDS011;64133;56.002;37.208;2023-08-08T15:20:01;4.70;;;2.10;;
75548;SDS011;64133;56.002;37.208;2023-08-08T15:25:06;8.20;;;3.50;;
75548;SDS011;64133;56.002;37.208;2023-08-08T15:30:12;11.15;;;2.27;;
75548;SDS011;64133;56.002;37.208;2023-08-08T15:35:16;4.58;;;2.12;;
75548;SDS011;64133;56.002;37.208;2023-08-08T15:40:21;3.98;;;2.00;;
75548;SDS011;64133;56.002;37.208;2023-08-08T15:45:26;7.87;;;2.02;;
75548;SDS011;64133;56.002;37.208;2023-08-08T15:50:31;5.05;;;2.08;;
75548;SDS011;64133;56.002;37.208;2023-08-08T15:55:36;3.98;;;2.58;;
75548;SDS011;64133;56.002;37.208;2023-08-08T16:00:40;5.30;;;1.70;;
75548;SDS011;64133;56.002;37.208;2023-08-08T16:05:45;4.62;;;1.82;;
75548;SDS011;64133;56.002;37.208;2023-08-08T16:10:50;3.95;;;1.87;;
75548;SDS011;64133;56.002;37.208;2023-08-08T16:15:54;7.58;;;1.52;;
75548;SDS011;64133;56.002;37.208;2023-08-08T16:20:59;5.17;;;1.62;;
75548;SDS011;64133;56.002;37.208;2023-08-08T16:26:04;3.17;;;1.47;;
75548;SDS011;64133;56.002;37.208;2023-08-08T16:31:09;3.15;;;1.52;;
75548;SDS011;64133;56.002;37.208;2023-08-08T16:36:14;3.37;;;1.50;;
75548;SDS011;64133;56.002;37.208;2023-08-08T16:41:18;4.60;;;1.80;;
75548;SDS011;64133;56.002;37.208;2023-08-08T16:46:23;2.27;;;1.30;;
75548;SDS011;64133;56.002;37.208;2023-08-08T16:51:29;5.30;;;1.90;;
75548;SDS011;64133;56.002;37.208;2023-08-08T16:56:34;5.33;;;1.55;;
75548;SDS011;64133;56.002;37.208;2023-08-08T17:01:38;2.42;;;1.42;;
75548;SDS011;64133;56.002;37.208;2023-08-08T17:06:43;3.98;;;1.20;;
75548;SDS011;64133;56.002;37.208;2023-08-08T17:11:48;4.62;;;1.65;;
75548;SDS011;64133;56.002;37.208;2023-08-08T17:16:53;3.22;;;1.32;;
75548;SDS011;64133;56.002;37.208;2023-08-08T17:21:57;2.25;;;1.20;;
75548;SDS011;64133;56.002;37.208;2023-08-08T17:27:02;1.90;;;1.32;;
75548;SDS011;64133;56.002;37.208;2023-08-08T17:32:07;4.58;;;1.20;;
75548;SDS011;64133;56.002;37.208;2023-08-08T17:37:12;4.03;;;1.05;;
75548;SDS011;64133;56.002;37.208;2023-08-08T17:42:17;2.42;;;0.93;;
75548;SDS011;64133;56.002;37.208;2023-08-08T17:47:22;4.10;;;1.00;;
75548;SDS011;64133;56.002;37.208;2023-08-08T17:52:27;2.42;;;1.10;;
75548;SDS011;64133;56.002;37.208;2023-08-08T17:57:33;1.67;;;0.95;;
75548;SDS011;64133;56.002;37.208;2023-08-08T18:02:46;2.12;;;1.17;;
75548;SDS011;64133;56.002;37.208;2023-08-08T18:07:51;1.92;;;0.90;;
75548;SDS011;64133;56.002;37.208;2023-08-08T18:12:56;3.42;;;1.05;;
75548;SDS011;64133;56.002;37.208;2023-08-08T18:18:01;1.72;;;0.60;;
75548;SDS011;64133;56.002;37.208;2023-08-08T18:23:06;2.40;;;1.70;;
75548;SDS011;64133;56.002;37.208;2023-08-08T18:28:11;3.17;;;1.10;;
75548;SDS011;64133;56.002;37.208;2023-08-08T18:33:15;3.10;;;1.02;;
75548;SDS011;64133;56.002;37.208;2023-08-08T18:38:20;1.52;;;0.95;;
75548;SDS011;64133;56.002;37.208;2023-08-08T18:43:25;1.70;;;0.88;;
75548;SDS011;64133;56.002;37.208;2023-08-08T18:48:30;1.80;;;0.90;;
75548;SDS011;64133;56.002;37.208;2023-08-08T18:53:34;1.67;;;1.00;;
75548;SDS011;64133;56.002;37.208;2023-08-08T18:58:39;2.33;;;1.12;;
75548;SDS011;64133;56.002;37.208;2023-08-08T19:03:44;4.00;;;1.10;;
75548;SDS011;64133;56.002;37.208;2023-08-08T19:08:48;2.58;;;1.30;;
75548;SDS011;64133;56.002;37.208;2023-08-08T19:13:53;2.90;;;1.00;;
75548;SDS011;64133;56.002;37.208;2023-08-08T19:18:58;2.75;;;1.20;;
75548;SDS011;64133;56.002;37.208;2023-08-08T19:24:03;2.45;;;1.42;;
75548;SDS011;64133;56.002;37.208;2023-08-08T19:29:08;4.72;;;0.90;;
75548;SDS011;64133;56.002;37.208;2023-08-08T19:34:12;1.85;;;1.00;;
75548;SDS011;64133;56.002;37.208;2023-08-08T19:39:17;2.02;;;1.10;;
75548;SDS011;64133;56.002;37.208;2023-08-08T19:44:22;3.42;;;1.85;;
75548;SDS011;64133;56.002;37.208;2023-08-08T19:49:26;9.60;;;1.47;;
75548;SDS011;64133;56.002;37.208;2023-08-08T19:54:31;3.33;;;1.30;;
75548;SDS011;64133;56.002;37.208;2023-08-08T19:59:36;3.60;;;1.15;;
75548;SDS011;64133;56.002;37.208;2023-08-08T20:04:40;1.57;;;0.93;;
75548;SDS011;64133;56.002;37.208;2023-08-08T20:09:45;2.00;;;1.10;;
75548;SDS011;64133;56.002;37.208;2023-08-08T20:14:50;3.77;;;1.27;;
75548;SDS011;64133;56.002;37.208;2023-08-08T20:19:54;2.08;;;0.90;;
75548;SDS011;64133;56.002;37.208;2023-08-08T20:24:59;4.60;;;0.82;;
75548;SDS011;64133;56.002;37.208;2023-08-08T20:30:05;2.02;;;1.00;;
75548;SDS011;64133;56.002;37.208;2023-08-08T20:35:10;2.17;;;1.05;;
75548;SDS011;64133;56.002;37.208;2023-08-08T20:40:17;6.17;;;1.52;;
75548;SDS011;64133;56.002;37.208;2023-08-08T20:45:22;6.60;;;1.00;;
75548;SDS011;64133;56.002;37.208;2023-08-08T20:50:27;1.92;;;0.75;;
75548;SDS011;64133;56.002;37.208;2023-08-08T20:55:32;2.37;;;1.00;;
75548;SDS011;64133;56.002;37.208;2023-08-08T21:00:36;1.45;;;0.75;;
75548;SDS011;64133;56.002;37.208;2023-08-08T21:05:41;2.72;;;0.90;;
75548;SDS011;64133;56.002;37.208;2023-08-08T21:10:46;1.92;;;0.80;;
75548;SDS011;64133;56.002;37.208;2023-08-08T21:15:50;1.35;;;0.72;;
75548;SDS011;64133;56.002;37.208;2023-08-08T21:20:55;3.95;;;0.90;;
75548;SDS011;64133;56.002;37.208;2023-08-08T21:26:00;2.70;;;0.88;;
75548;SDS011;64133;56.002;37.208;2023-08-08T21:31:04;6.10;;;0.75;;
75548;SDS011;64133;56.002;37.208;2023-08-08T21:36:09;1.47;;;0.65;;
75548;SDS011;64133;56.002;37.208;2023-08-08T21:41:14;2.45;;;0.70;;
75548;SDS011;64133;56.002;37.208;2023-08-08T21:46:19;3.02;;;0.70;;
75548;SDS011;64133;56.002;37.208;2023-08-08T21:51:24;1.10;;;0.60;;
75548;SDS011;64133;56.002;37.208;2023-08-08T21:56:28;1.30;;;0.60;;
75548;SDS011;64133;56.002;37.208;2023-08-08T22:01:33;1.30;;;0.50;;
75548;SDS011;64133;56.002;37.208;2023-08-08T22:06:38;4.08;;;0.88;;
75548;SDS011;64133;56.002;37.208;2023-08-08T22:11:42;2.87;;;0.60;;
75548;SDS011;64133;56.002;37.208;2023-08-08T22:16:47;2.25;;;0.68;;
75548;SDS011;64133;56.002;37.208;2023-08-08T22:21:52;1.60;;;0.65;;
75548;SDS011;64133;56.002;37.208;2023-08-08T22:26:56;2.25;;;0.80;;
75548;SDS011;64133;56.002;37.208;2023-08-08T22:32:01;2.20;;;0.70;;
75548;SDS011;64133;56.002;37.208;2023-08-08T22:37:06;1.80;;;0.70;;
75548;SDS011;64133;56.002;37.208;2023-08-08T22:42:11;1.50;;;0.65;;
75548;SDS011;64133;56.002;37.208;2023-08-08T22:47:15;2.02;;;0.82;;
75548;SDS011;64133;56.002;37.208;2023-08-08T22:52:20;1.55;;;0.98;;
75548;SDS011;64133;56.002;37.208;2023-08-08T22:57:25;1.65;;;0.78;;
75548;SDS011;64133;56.002;37.208;2023-08-08T23:02:30;1.80;;;0.70;;
75548;SDS011;64133;56.002;37.208;2023-08-08T23:07:34;1.47;;;0.70;;
75548;SDS011;64133;56.002;37.208;2023-08-08T23:12:39;2.05;;;0.78;;
75548;SDS011;64133;56.002;37.208;2023-08-08T23:17:44;2.75;;;0.88;;
75548;SDS011;64133;56.002;37.208;2023-08-08T23:22:48;1.45;;;0.70;;
75548;SDS011;64133;56.002;37.208;2023-08-08T23:27:53;5.85;;;0.90;;
75548;SDS011;64133;56.002;37.208;2023-08-08T23:32:58;5.85;;;2.58;;
75548;SDS011;64133;56.002;37.208;2023-08-08T23:38:03;6.67;;;3.12;;
75548;SDS011;64133;56.002;37.208;2023-08-08T23:43:07;19.37;;;8.50;;
75548;SDS011;64133;56.002;37.208;2023-08-08T23:48:12;26.42;;;7.90;;
75548;SDS011;64133;56.002;37.208;2023-08-08T23:53:17;83.07;;;25.65;;
75548;SDS011;64133;56.002;37.208;2023-08-08T23:58:21;5.67;;;1.65;;
